createdAt,value
2023-02-09T00:00:11.939Z,44.90
2023-02-09T00:02:38.825Z,44.90
2023-02-09T00:05:06.172Z,45.10
2023-02-09T00:07:33.086Z,45.10
2023-02-09T00:09:59.958Z,45.20
2023-02-09T00:12:45.270Z,45.50
2023-02-09T00:15:12.082Z,45.40
2023-02-09T00:17:38.873Z,45.60
2023-02-09T00:20:07.195Z,46.00
2023-02-09T00:22:34.123Z,46.20
2023-02-09T00:25:00.897Z,46.40
2023-02-09T00:27:27.689Z,47.10
2023-02-09T00:29:54.393Z,46.10
2023-02-09T00:32:21.107Z,46.00
2023-02-09T00:34:47.932Z,46.00
2023-02-09T00:37:14.750Z,46.10
2023-02-09T00:39:41.451Z,46.20
2023-02-09T00:42:08.266Z,46.20
2023-02-09T00:44:37.222Z,45.90
2023-02-09T00:47:05.248Z,46.10
2023-02-09T00:49:32.399Z,46.40
2023-02-09T00:51:59.201Z,46.80
2023-02-09T00:54:25.992Z,48.80
2023-02-09T00:56:52.693Z,49.00
2023-02-09T00:59:19.456Z,48.90
2023-02-09T01:01:46.214Z,48.40
2023-02-09T01:04:13.230Z,47.90
2023-02-09T01:06:39.963Z,47.50
2023-02-09T01:09:06.697Z,47.30
2023-02-09T01:11:33.472Z,47.10
2023-02-09T01:14:01.006Z,46.70
2023-02-09T01:16:28.962Z,46.70
2023-02-09T01:18:56.171Z,47.30
2023-02-09T01:21:24.403Z,47.40
2023-02-09T01:23:51.211Z,47.40
2023-02-09T01:26:18.827Z,47.50
2023-02-09T01:28:50.975Z,47.20
2023-02-09T01:31:22.634Z,47.20
2023-02-09T01:33:49.511Z,47.40
2023-02-09T01:36:16.379Z,47.40
2023-02-09T01:38:43.459Z,47.30
2023-02-09T01:41:10.258Z,47.50
2023-02-09T01:43:51.984Z,47.50
2023-02-09T01:46:18.788Z,47.70
2023-02-09T01:48:46.569Z,47.80
2023-02-09T01:51:13.736Z,48.10
2023-02-09T01:53:40.782Z,48.10
2023-02-09T01:56:17.270Z,48.40
2023-02-09T01:58:45.831Z,48.70
2023-02-09T02:01:13.843Z,48.40
2023-02-09T02:03:40.940Z,48.30
2023-02-09T02:06:14.206Z,48.30
2023-02-09T02:08:58.720Z,48.50
2023-02-09T02:11:28.254Z,48.40
2023-02-09T02:13:55.238Z,48.50
2023-02-09T02:16:31.308Z,48.60
2023-02-09T02:19:25.650Z,48.70
2023-02-09T02:22:27.040Z,48.80
2023-02-09T02:25:12.650Z,48.60
2023-02-09T02:28:00.718Z,48.60
2023-02-09T02:30:58.221Z,48.90
2023-02-09T02:34:04.560Z,49.40
2023-02-09T02:36:36.029Z,49.90
2023-02-09T02:39:31.569Z,50.10
2023-02-09T02:42:21.991Z,50.50
2023-02-09T02:45:03.951Z,51.10
2023-02-09T02:47:34.727Z,51.20
2023-02-09T02:50:10.553Z,51.70
2023-02-09T02:52:40.063Z,52.10
2023-02-09T02:55:13.537Z,52.00
2023-02-09T02:57:44.696Z,52.20
2023-02-09T03:00:17.397Z,52.20
2023-02-09T03:02:49.202Z,52.60
2023-02-09T03:05:17.574Z,52.50
2023-02-09T03:07:44.592Z,52.70
2023-02-09T03:10:35.513Z,52.70
2023-02-09T03:13:21.237Z,53.10
2023-02-09T03:16:06.643Z,53.10
2023-02-09T03:18:48.510Z,53.10
2023-02-09T03:21:48.061Z,52.80
2023-02-09T03:24:55.706Z,52.90
2023-02-09T03:27:29.185Z,53.00
2023-02-09T03:30:00.882Z,52.90
2023-02-09T03:32:28.162Z,53.10
2023-02-09T03:34:56.015Z,53.50
2023-02-09T03:37:23.638Z,55.00
2023-02-09T03:39:50.362Z,54.40
2023-02-09T03:42:17.236Z,55.00
2023-02-09T03:44:43.947Z,55.20
2023-02-09T03:47:10.990Z,55.20
2023-02-09T03:49:39.914Z,55.40
2023-02-09T03:52:10.152Z,55.50
2023-02-09T03:54:37.367Z,56.00
2023-02-09T03:57:04.787Z,55.80
2023-02-09T03:59:35.449Z,56.00
2023-02-09T04:02:03.037Z,55.90
2023-02-09T04:04:29.765Z,55.60
2023-02-09T04:06:57.483Z,56.30
2023-02-09T04:09:25.847Z,56.50
2023-02-09T04:11:52.643Z,56.70
2023-02-09T04:14:19.576Z,56.40
2023-02-09T04:16:46.399Z,56.60
2023-02-09T04:19:13.246Z,56.70
2023-02-09T04:21:40.029Z,56.80
2023-02-09T04:24:07.959Z,56.60
2023-02-09T04:26:35.353Z,56.50
2023-02-09T04:29:02.100Z,56.30
2023-02-09T04:31:28.989Z,56.20
2023-02-09T04:33:55.965Z,56.20
2023-02-09T04:36:23.465Z,56.60
2023-02-09T04:38:50.713Z,57.00
2023-02-09T04:41:17.771Z,57.10
2023-02-09T04:43:46.187Z,57.00
2023-02-09T04:46:14.515Z,57.20
2023-02-09T04:48:41.558Z,57.20
2023-02-09T04:51:08.788Z,57.00
2023-02-09T04:53:35.884Z,57.00
2023-02-09T04:56:02.946Z,57.40
2023-02-09T04:58:48.010Z,57.60
2023-02-09T05:01:22.642Z,57.80
2023-02-09T05:03:49.472Z,57.70
2023-02-09T05:06:16.476Z,57.50
2023-02-09T05:08:44.385Z,57.50
2023-02-09T05:11:11.586Z,57.80
2023-02-09T05:13:39.118Z,58.30
2023-02-09T05:16:12.379Z,58.90
2023-02-09T05:18:39.130Z,59.50
2023-02-09T05:21:06.000Z,60.00
2023-02-09T05:23:32.986Z,60.00
2023-02-09T05:25:59.723Z,60.40
2023-02-09T05:28:26.905Z,60.90
2023-02-09T05:30:54.032Z,60.90
2023-02-09T05:33:21.812Z,60.90
2023-02-09T05:35:48.914Z,61.10
2023-02-09T05:38:15.734Z,60.90
2023-02-09T05:40:44.203Z,60.60
2023-02-09T05:43:11.825Z,60.10
2023-02-09T05:45:38.630Z,60.40
2023-02-09T05:48:05.574Z,60.30
2023-02-09T05:50:32.575Z,60.20
2023-02-09T05:53:00.659Z,60.50
2023-02-09T05:55:27.554Z,60.50
2023-02-09T05:57:54.328Z,60.30
2023-02-09T06:00:21.548Z,59.90
2023-02-09T06:02:48.264Z,60.00
2023-02-09T06:05:15.021Z,60.10
2023-02-09T06:07:41.790Z,60.00
2023-02-09T06:10:08.923Z,60.60
2023-02-09T06:12:35.663Z,60.70
2023-02-09T06:15:03.815Z,60.40
2023-02-09T06:17:30.541Z,60.60
2023-02-09T06:19:57.319Z,60.40
2023-02-09T06:22:24.045Z,61.00
2023-02-09T06:24:50.782Z,61.10
2023-02-09T06:27:17.530Z,61.10
2023-02-09T06:29:44.288Z,61.10
2023-02-09T06:32:11.296Z,61.00
2023-02-09T06:34:38.061Z,60.60
2023-02-09T06:37:04.795Z,60.20
2023-02-09T06:39:31.505Z,60.10
2023-02-09T06:41:58.289Z,59.80
2023-02-09T06:44:24.994Z,59.80
2023-02-09T06:46:51.722Z,60.00
2023-02-09T06:49:19.065Z,60.10
2023-02-09T06:51:46.098Z,60.40
2023-02-09T06:54:13.035Z,60.10
2023-02-09T06:56:39.732Z,60.20
2023-02-09T06:59:06.454Z,60.50
2023-02-09T07:01:33.269Z,60.20
2023-02-09T07:04:00.037Z,59.80
2023-02-09T07:06:27.084Z,60.00
2023-02-09T07:08:53.852Z,60.00
2023-02-09T07:11:20.997Z,59.80
2023-02-09T07:13:47.822Z,59.60
2023-02-09T07:16:15.253Z,59.60
2023-02-09T07:18:42.190Z,59.70
2023-02-09T07:21:15.857Z,59.30
2023-02-09T07:23:42.660Z,59.30
2023-02-09T07:26:15.183Z,59.40
2023-02-09T07:28:42.520Z,59.00
2023-02-09T07:31:11.895Z,58.10
2023-02-09T07:33:38.991Z,57.30
2023-02-09T07:36:10.842Z,56.50
2023-02-09T07:38:38.621Z,55.10
2023-02-09T07:41:07.285Z,54.30
2023-02-09T07:43:34.953Z,54.40
2023-02-09T07:46:04.607Z,53.90
2023-02-09T07:48:32.023Z,53.10
2023-02-09T07:50:59.525Z,52.70
2023-02-09T07:53:27.154Z,52.20
2023-02-09T07:55:54.070Z,51.80
2023-02-09T07:58:22.046Z,51.00
2023-02-09T08:00:50.300Z,49.80
2023-02-09T08:03:20.420Z,48.60
2023-02-09T08:05:50.245Z,47.40
2023-02-09T08:08:16.987Z,46.70
2023-02-09T08:10:44.114Z,46.00
2023-02-09T08:13:11.825Z,45.50
2023-02-09T08:15:45.331Z,44.70
2023-02-09T08:18:16.256Z,43.90
2023-02-09T08:20:44.761Z,42.50
2023-02-09T08:23:33.627Z,42.10
2023-02-09T08:26:05.802Z,42.60
2023-02-09T08:28:43.603Z,41.60
2023-02-09T08:31:12.876Z,41.30
2023-02-09T08:33:40.330Z,40.50
2023-02-09T08:36:07.733Z,41.30
2023-02-09T08:38:35.361Z,40.40
2023-02-09T08:41:04.646Z,40.40
2023-02-09T08:43:32.027Z,39.90
2023-02-09T08:46:17.460Z,40.00
2023-02-09T08:48:46.736Z,39.70
2023-02-09T08:51:15.203Z,39.30
2023-02-09T08:53:43.389Z,40.10
2023-02-09T08:56:10.697Z,39.10
2023-02-09T08:58:37.431Z,39.30
2023-02-09T09:01:05.411Z,39.40
2023-02-09T09:03:33.227Z,39.90
2023-02-09T09:06:05.964Z,40.10
2023-02-09T09:08:35.295Z,40.50
2023-02-09T09:11:02.421Z,40.40
2023-02-09T09:13:29.142Z,40.20
2023-02-09T09:15:56.110Z,40.60
2023-02-09T09:18:24.465Z,40.40
2023-02-09T09:20:51.864Z,40.30
2023-02-09T09:23:19.062Z,40.90
2023-02-09T09:25:46.099Z,40.80
2023-02-09T09:28:13.235Z,41.40
2023-02-09T09:30:40.094Z,41.50
2023-02-09T09:33:06.961Z,41.60
2023-02-09T09:35:33.822Z,40.80
2023-02-09T09:38:01.654Z,40.90
2023-02-09T09:40:31.717Z,41.00
2023-02-09T09:43:02.294Z,41.70
2023-02-09T09:45:32.359Z,41.10
2023-02-09T09:48:00.175Z,40.90
2023-02-09T09:50:39.039Z,40.00
2023-02-09T09:53:16.227Z,39.40
2023-02-09T09:55:45.054Z,39.40
2023-02-09T09:58:18.569Z,39.10
2023-02-09T10:00:45.647Z,38.60
2023-02-09T10:03:21.335Z,37.20
2023-02-09T10:05:50.850Z,37.50
2023-02-09T10:08:32.633Z,36.60
2023-02-09T10:11:10.042Z,36.90
2023-02-09T10:13:40.846Z,36.90
2023-02-09T10:16:20.999Z,37.90
2023-02-09T10:18:59.656Z,35.90
2023-02-09T10:21:29.969Z,34.80
2023-02-09T10:24:02.638Z,34.30
2023-02-09T10:26:35.287Z,34.10
2023-02-09T10:29:10.802Z,33.40
2023-02-09T10:31:42.921Z,33.10
2023-02-09T10:34:22.066Z,32.60
2023-02-09T10:36:52.199Z,33.10
2023-02-09T10:39:22.736Z,33.30
2023-02-09T10:41:52.494Z,32.60
2023-02-09T10:44:21.698Z,32.40
2023-02-09T10:46:49.344Z,31.90
2023-02-09T10:49:30.160Z,32.50
2023-02-09T10:52:14.052Z,31.40
2023-02-09T10:54:52.443Z,31.20
2023-02-09T10:57:33.833Z,31.60
2023-02-09T11:00:17.374Z,31.10
2023-02-09T11:02:51.921Z,30.50
2023-02-09T11:05:21.463Z,31.10
2023-02-09T11:08:22.204Z,31.60
2023-02-09T11:10:55.950Z,31.50
2023-02-09T11:13:25.197Z,32.10
2023-02-09T11:16:25.937Z,31.90
2023-02-09T11:19:11.270Z,32.50
2023-02-09T11:22:01.469Z,33.90
2023-02-09T11:25:07.238Z,33.40
2023-02-09T11:27:57.090Z,33.10
2023-02-09T11:30:54.474Z,33.60
2023-02-09T11:33:30.231Z,34.30
2023-02-09T11:36:05.563Z,34.40
2023-02-09T11:38:44.131Z,34.90
2023-02-09T11:41:34.430Z,35.20
2023-02-09T11:44:04.298Z,36.20
2023-02-09T11:46:33.787Z,36.50
2023-02-09T11:49:06.727Z,36.60
2023-02-09T11:51:37.768Z,36.80
2023-02-09T11:54:20.415Z,37.10
2023-02-09T11:56:55.381Z,37.30
2023-02-09T11:59:39.929Z,37.30
2023-02-09T12:02:42.739Z,37.20
2023-02-09T12:05:16.837Z,37.10
2023-02-09T12:08:00.960Z,37.00
2023-02-09T12:10:35.686Z,37.00
2023-02-09T12:13:39.618Z,37.00
2023-02-09T12:16:21.899Z,37.10
2023-02-09T12:18:49.017Z,37.00
2023-02-09T12:21:28.424Z,37.40
2023-02-09T12:23:55.222Z,37.30
2023-02-09T12:26:21.919Z,37.50
2023-02-09T12:29:04.676Z,37.30
2023-02-09T12:31:52.369Z,37.60
2023-02-09T12:34:37.895Z,37.40
2023-02-09T12:37:13.607Z,37.50
2023-02-09T12:40:02.366Z,38.10
2023-02-09T12:42:38.929Z,37.90
2023-02-09T12:45:30.829Z,38.10
2023-02-09T12:48:01.064Z,38.30
2023-02-09T12:50:53.272Z,38.60
2023-02-09T12:53:22.866Z,38.60
2023-02-09T12:56:09.885Z,38.50
2023-02-09T12:58:37.979Z,38.60
2023-02-09T13:01:05.929Z,38.70
2023-02-09T13:03:40.683Z,38.80
2023-02-09T13:06:24.318Z,38.90
2023-02-09T13:08:54.572Z,39.00
2023-02-09T13:11:29.558Z,39.20
2023-02-09T13:14:00.107Z,39.00
2023-02-09T13:16:29.989Z,38.80
2023-02-09T13:19:10.771Z,38.60
2023-02-09T13:22:01.428Z,38.70
2023-02-09T13:24:39.370Z,38.80
2023-02-09T13:27:19.057Z,38.80
2023-02-09T13:29:53.776Z,38.80
2023-02-09T13:32:55.089Z,38.70
2023-02-09T13:35:24.752Z,39.40
2023-02-09T13:37:59.930Z,39.00
2023-02-09T13:40:32.061Z,39.30
2023-02-09T13:43:07.747Z,39.40
2023-02-09T13:45:34.483Z,39.60
2023-02-09T13:48:04.181Z,39.60
2023-02-09T13:50:32.019Z,39.30
2023-02-09T13:53:10.808Z,39.90
2023-02-09T13:55:40.006Z,39.00
2023-02-09T13:58:14.036Z,39.30
2023-02-09T14:00:42.439Z,40.90
2023-02-09T14:03:21.713Z,39.50
2023-02-09T14:05:51.535Z,39.40
2023-02-09T14:08:19.859Z,38.80
2023-02-09T14:11:12.831Z,38.90
2023-02-09T14:13:49.916Z,38.70
2023-02-09T14:16:18.785Z,38.80
2023-02-09T14:18:49.497Z,38.70
2023-02-09T14:21:20.907Z,38.80
2023-02-09T14:23:55.552Z,38.80
2023-02-09T14:26:28.299Z,38.50
2023-02-09T14:29:18.420Z,38.40
2023-02-09T14:31:57.413Z,38.40
2023-02-09T14:34:38.675Z,38.70
2023-02-09T14:37:11.604Z,38.40
2023-02-09T14:40:12.257Z,38.50
2023-02-09T14:43:22.995Z,38.70
2023-02-09T14:46:12.164Z,38.70
2023-02-09T14:48:38.871Z,38.70
2023-02-09T14:51:17.573Z,38.80
2023-02-09T14:53:49.293Z,38.70
2023-02-09T14:56:30.464Z,39.00
2023-02-09T14:58:57.244Z,38.70
2023-02-09T15:01:24.285Z,38.70
2023-02-09T15:03:51.138Z,38.90
2023-02-09T15:06:17.961Z,38.90
2023-02-09T15:08:44.869Z,39.20
2023-02-09T15:11:42.512Z,39.20
2023-02-09T15:14:10.981Z,39.30
2023-02-09T15:16:37.668Z,39.30
2023-02-09T15:19:10.536Z,39.30
2023-02-09T15:21:37.372Z,40.00
2023-02-09T15:24:04.543Z,39.70
2023-02-09T15:26:35.206Z,39.40
2023-02-09T15:29:02.187Z,39.60
2023-02-09T15:31:29.216Z,39.70
2023-02-09T15:33:56.090Z,40.00
2023-02-09T15:36:23.668Z,40.20
2023-02-09T15:38:54.900Z,40.20
2023-02-09T15:41:40.932Z,40.30
2023-02-09T15:44:45.283Z,40.50
2023-02-09T15:47:30.979Z,40.80
2023-02-09T15:49:57.686Z,41.00
2023-02-09T15:52:24.895Z,41.20
2023-02-09T15:54:52.780Z,41.30
2023-02-09T15:57:19.705Z,41.50
2023-02-09T15:59:47.110Z,41.70
2023-02-09T16:02:15.799Z,41.80
2023-02-09T16:04:42.989Z,41.90
2023-02-09T16:07:19.569Z,42.00
2023-02-09T16:09:46.384Z,41.90
2023-02-09T16:12:13.085Z,42.30
2023-02-09T16:14:40.257Z,42.40
2023-02-09T16:17:08.119Z,42.60
2023-02-09T16:19:35.032Z,42.50
2023-02-09T16:22:05.004Z,42.50
2023-02-09T16:24:42.020Z,43.00
2023-02-09T16:27:34.847Z,44.10
2023-02-09T16:30:01.687Z,45.10
2023-02-09T16:32:28.764Z,46.10
2023-02-09T16:35:04.558Z,47.00
2023-02-09T16:37:37.835Z,47.80
2023-02-09T16:40:27.123Z,48.20
2023-02-09T16:42:54.638Z,48.50
2023-02-09T16:45:22.241Z,48.70
2023-02-09T16:47:52.797Z,49.00
2023-02-09T16:50:44.494Z,49.20
2023-02-09T16:53:24.974Z,49.90
2023-02-09T16:55:51.952Z,50.20
2023-02-09T16:58:18.896Z,50.60
2023-02-09T17:00:46.103Z,50.90
2023-02-09T17:03:17.079Z,51.00
2023-02-09T17:05:50.150Z,51.10
2023-02-09T17:08:18.484Z,51.00
2023-02-09T17:10:47.107Z,51.10
2023-02-09T17:13:17.432Z,51.10
2023-02-09T17:15:48.369Z,51.10
2023-02-09T17:18:28.741Z,51.30
2023-02-09T17:20:57.793Z,51.70
2023-02-09T17:23:28.143Z,51.80
2023-02-09T17:25:55.658Z,51.80
2023-02-09T17:28:24.491Z,52.40
2023-02-09T17:30:52.728Z,52.50
2023-02-09T17:33:25.765Z,52.60
2023-02-09T17:36:23.886Z,52.60
2023-02-09T17:38:41.084Z,52.70
2023-02-09T17:41:15.943Z,53.10
2023-02-09T17:43:43.402Z,52.60
2023-02-09T17:46:19.262Z,52.50
2023-02-09T17:48:47.005Z,52.40
2023-02-09T17:51:31.985Z,52.20
2023-02-09T17:53:58.911Z,52.10
2023-02-09T17:56:25.692Z,52.00
2023-02-09T17:58:52.585Z,52.10
2023-02-09T18:01:26.563Z,52.30
2023-02-09T18:03:58.725Z,52.20
2023-02-09T18:06:38.342Z,52.60
2023-02-09T18:09:09.259Z,52.90
2023-02-09T18:11:45.076Z,55.80
2023-02-09T18:14:17.911Z,54.90
2023-02-09T18:16:45.217Z,54.40
2023-02-09T18:19:13.221Z,54.00
2023-02-09T18:21:52.878Z,53.60
2023-02-09T18:24:21.373Z,53.00
2023-02-09T18:26:49.913Z,53.00
2023-02-09T18:29:17.976Z,52.80
2023-02-09T18:31:44.856Z,53.10
2023-02-09T18:34:11.541Z,54.30
2023-02-09T18:36:38.306Z,54.90
2023-02-09T18:39:05.012Z,54.80
2023-02-09T18:41:31.756Z,55.30
2023-02-09T18:43:58.754Z,56.50
2023-02-09T18:46:27.012Z,57.10
2023-02-09T18:48:54.680Z,57.40
2023-02-09T18:51:21.874Z,57.70
2023-02-09T18:53:50.198Z,57.80
2023-02-09T18:56:21.865Z,57.80
2023-02-09T18:58:52.278Z,57.70
2023-02-09T19:01:23.872Z,57.50
2023-02-09T19:03:51.778Z,57.40
2023-02-09T19:06:22.616Z,57.20
2023-02-09T19:08:50.487Z,57.50
2023-02-09T19:11:19.896Z,57.60
2023-02-09T19:14:05.687Z,57.50
2023-02-09T19:16:32.783Z,57.50
2023-02-09T19:19:00.746Z,57.90
2023-02-09T19:21:28.628Z,57.60
2023-02-09T19:23:55.726Z,57.50
2023-02-09T19:26:22.553Z,57.50
2023-02-09T19:28:49.379Z,57.50
2023-02-09T19:31:18.015Z,57.30
2023-02-09T19:33:44.837Z,57.00
2023-02-09T19:36:11.704Z,56.50
2023-02-09T19:38:38.481Z,56.70
2023-02-09T19:41:11.879Z,57.10
2023-02-09T19:43:39.947Z,57.10
2023-02-09T19:46:07.823Z,57.10
2023-02-09T19:48:34.712Z,57.10
2023-02-09T19:51:01.477Z,57.50
2023-02-09T19:53:28.657Z,57.30
2023-02-09T19:55:55.773Z,58.00
2023-02-09T19:58:23.022Z,58.80
2023-02-09T20:00:51.746Z,59.50
2023-02-09T20:03:19.112Z,59.60
2023-02-09T20:05:46.587Z,59.40
2023-02-09T20:08:16.588Z,59.70
2023-02-09T20:10:44.466Z,59.20
2023-02-09T20:13:13.041Z,59.90
2023-02-09T20:15:44.213Z,59.90
2023-02-09T20:18:13.520Z,60.00
2023-02-09T20:20:43.127Z,61.40
2023-02-09T20:23:10.569Z,61.70
2023-02-09T20:25:40.806Z,61.30
2023-02-09T20:28:08.042Z,60.60
2023-02-09T20:30:35.162Z,60.10
2023-02-09T20:33:01.948Z,59.40
2023-02-09T20:35:28.919Z,59.40
2023-02-09T20:37:55.694Z,59.20
2023-02-09T20:40:22.763Z,59.00
2023-02-09T20:43:08.281Z,59.10
2023-02-09T20:45:53.872Z,59.10
2023-02-09T20:48:20.772Z,59.10
2023-02-09T20:50:47.885Z,58.90
2023-02-09T20:53:14.830Z,58.60
2023-02-09T20:55:42.939Z,58.60
2023-02-09T20:58:12.757Z,58.50
2023-02-09T21:00:43.189Z,58.70
2023-02-09T21:03:10.095Z,57.80
2023-02-09T21:05:37.231Z,59.80
2023-02-09T21:08:06.946Z,60.80
2023-02-09T21:10:35.528Z,61.80
2023-02-09T21:13:03.923Z,63.60
2023-02-09T21:15:30.829Z,64.40
2023-02-09T21:17:57.705Z,65.50
2023-02-09T21:20:24.683Z,66.00
2023-02-09T21:22:51.668Z,66.70
2023-02-09T21:25:21.754Z,66.70
2023-02-09T21:27:48.741Z,66.70
2023-02-09T21:30:16.543Z,66.70
2023-02-09T21:32:43.518Z,67.40
2023-02-09T21:35:10.941Z,66.00
2023-02-09T21:37:38.902Z,65.50
2023-02-09T21:40:06.742Z,65.00
2023-02-09T21:42:35.575Z,66.00
2023-02-09T21:45:02.993Z,66.10
2023-02-09T21:47:35.984Z,65.90
2023-02-09T21:50:03.476Z,66.20
2023-02-09T21:52:31.576Z,66.20
2023-02-09T21:54:58.394Z,66.50
2023-02-09T21:57:26.115Z,66.20
2023-02-09T21:59:53.675Z,65.70
2023-02-09T22:02:21.055Z,64.80
2023-02-09T22:04:49.767Z,65.90
2023-02-09T22:07:16.637Z,65.40
2023-02-09T22:09:43.445Z,65.90
2023-02-09T22:12:10.285Z,67.30
2023-02-09T22:14:37.224Z,67.90
2023-02-09T22:17:04.004Z,68.70
2023-02-09T22:19:30.915Z,68.90
2023-02-09T22:21:58.144Z,69.00
2023-02-09T22:24:25.271Z,69.00
2023-02-09T22:26:52.493Z,69.40
2023-02-09T22:29:19.722Z,71.10
2023-02-09T22:31:46.543Z,70.10
2023-02-09T22:34:13.863Z,69.80
2023-02-09T22:36:40.685Z,70.00
2023-02-09T22:39:08.313Z,70.10
2023-02-09T22:41:35.580Z,69.70
2023-02-09T22:44:08.361Z,69.80
2023-02-09T22:46:37.564Z,70.10
2023-02-09T22:49:12.124Z,69.40
2023-02-09T22:51:39.179Z,68.80
2023-02-09T22:54:06.490Z,68.80
2023-02-09T22:56:33.587Z,68.70
2023-02-09T22:59:01.569Z,68.80
2023-02-09T23:01:29.271Z,68.90
2023-02-09T23:03:56.276Z,69.40
2023-02-09T23:06:24.646Z,69.70
2023-02-09T23:08:57.234Z,71.20
2023-02-09T23:11:24.281Z,71.10
2023-02-09T23:14:03.886Z,71.90
2023-02-09T23:16:35.642Z,72.30
2023-02-09T23:19:04.750Z,72.90
2023-02-09T23:21:34.719Z,72.90
2023-02-09T23:24:01.834Z,73.80
2023-02-09T23:26:28.713Z,74.00
2023-02-09T23:28:57.704Z,74.00
2023-02-09T23:31:24.823Z,74.10
2023-02-09T23:33:51.712Z,75.00
2023-02-09T23:36:21.299Z,75.70
2023-02-09T23:38:51.727Z,76.00
2023-02-09T23:41:19.611Z,75.60
2023-02-09T23:43:47.517Z,75.90
2023-02-09T23:46:23.170Z,75.40
2023-02-09T23:48:50.780Z,74.90
2023-02-09T23:51:19.766Z,73.90
2023-02-09T23:53:47.819Z,74.10
2023-02-09T23:56:16.249Z,74.40
2023-02-09T23:58:45.381Z,74.30
